Repto San Felipe, Puerto Rico
Current Conditions -  °F | °C
As of 2:53 AM on Tuesday 21 Oct 2014 (Local Time) from TJNR Reporting Station
Scattered Clouds Scattered Clouds  
Wind Chill: 81°   Ceiling: Unl
Heat Index: 86°   Visibility: 10mi
Dew Point: 74°   Wind: 7mph
Humidity: 79%   Direction: 100°E
Pressure: 29.93"   Gusts: NA
Location:  18.1494°N, 65.8294°W
Report Text: TJNR 210653Z AUTO 10006KT 10SM SCT022 SCT035 27/23 A2993 RMK AO2 SLP136 T02720233
Loading
Personal Weather Stations






























Interactive Weather Map
Tropical Storm Tracking
New forecast layout! Learn more

10-Day Weather Forecast

Advertisements
Track Severe Weather on mobile